Las Vegas, Nevada
Traffic Map
Current Weather Conditions
Las Vegas, Nevada
Broken Clouds
Broken Clouds
13°
Feels Like: 13°
Wind Chill: 13° Ceiling: 25000
Heat Index: 13° Visibility: 10mi
Dew Point: Wind: 0mph
Humidity: 51% Direction: ° ()
Pressure: 30.05in Gusts: 0mph
Raw Report DataKLAS 212256Z 00000KT 10SM FEW100 BKN250 13/03 A3005 RMK AO2 SLP173 T01330033 $
Traffic Incident Summary
Active as of:
Severity:
Category:
InformationThere was an issue retrieving the traffic information for this location. Please try a different location or try again shortly.
Advertisements
Track Severe Weather on mobile